createdAt,value
2018-06-01T00:02:09.857Z,21.80
2018-06-01T00:04:37.416Z,21.70
2018-06-01T00:07:04.889Z,21.80
2018-06-01T00:09:32.348Z,21.70
2018-06-01T00:11:59.816Z,21.70
2018-06-01T00:14:27.268Z,21.80
2018-06-01T00:16:54.747Z,21.80
2018-06-01T00:19:22.232Z,21.80
2018-06-01T00:21:49.713Z,21.80
2018-06-01T00:24:17.177Z,21.70
2018-06-01T00:26:44.741Z,21.70
2018-06-01T00:29:12.360Z,21.80
2018-06-01T00:31:40.765Z,21.80
2018-06-01T00:34:08.288Z,21.70
2018-06-01T00:36:35.755Z,21.70
2018-06-01T00:39:03.213Z,21.70
2018-06-01T00:41:30.848Z,21.70
2018-06-01T00:43:59.061Z,21.70
2018-06-01T00:46:26.516Z,21.70
2018-06-01T00:48:54.013Z,21.70
2018-06-01T00:51:21.472Z,21.70
2018-06-01T00:53:48.948Z,21.70
2018-06-01T00:56:16.441Z,21.70
2018-06-01T00:58:43.897Z,21.70
2018-06-01T01:01:11.360Z,21.70
2018-06-01T01:03:38.813Z,21.60
2018-06-01T01:06:06.305Z,21.60
2018-06-01T01:08:33.764Z,21.60
2018-06-01T01:11:01.220Z,21.50
2018-06-01T01:13:28.692Z,21.50
2018-06-01T01:15:56.188Z,21.40
2018-06-01T01:18:23.661Z,21.40
2018-06-01T01:20:51.125Z,21.30
2018-06-01T01:23:18.577Z,21.30
2018-06-01T01:25:46.045Z,21.30
2018-06-01T01:28:13.506Z,21.30
2018-06-01T01:30:40.969Z,21.30
2018-06-01T01:33:08.434Z,21.30
2018-06-01T01:35:36.005Z,21.40
2018-06-01T01:38:03.512Z,21.40
2018-06-01T01:40:30.972Z,21.40
2018-06-01T01:42:58.443Z,21.40
2018-06-01T01:45:25.898Z,21.40
2018-06-01T01:47:53.352Z,21.40
2018-06-01T01:50:20.831Z,21.40
2018-06-01T01:52:48.395Z,21.40
2018-06-01T01:55:15.900Z,21.30
2018-06-01T01:57:43.438Z,21.30
2018-06-01T02:00:11.009Z,21.20
2018-06-01T02:02:39.232Z,21.20
2018-06-01T02:05:06.689Z,21.20
2018-06-01T02:07:34.164Z,21.20
2018-06-01T02:10:01.649Z,21.20
2018-06-01T02:12:29.113Z,21.10
2018-06-01T02:14:56.590Z,21.10
2018-06-01T02:17:24.041Z,21.10
2018-06-01T02:19:51.533Z,21.20
2018-06-01T02:22:18.989Z,21.20
2018-06-01T02:24:46.469Z,21.20
2018-06-01T02:27:13.940Z,21.20
2018-06-01T02:29:41.505Z,21.20
2018-06-01T02:32:08.992Z,21.20
2018-06-01T02:34:36.450Z,21.20
2018-06-01T02:37:03.899Z,21.10
2018-06-01T02:39:31.381Z,21.10
2018-06-01T02:41:58.862Z,21.10
2018-06-01T02:44:26.437Z,21.00
2018-06-01T02:46:54.010Z,21.00
2018-06-01T02:49:21.461Z,20.90
2018-06-01T02:51:48.960Z,20.90
2018-06-01T02:54:16.737Z,20.80
2018-06-01T02:56:44.288Z,20.80
2018-06-01T02:59:11.753Z,20.80
2018-06-01T03:01:39.256Z,20.80
2018-06-01T03:04:07.481Z,20.90
2018-06-01T03:09:40.512Z,20.90
2018-06-01T03:12:08.742Z,20.90
2018-06-01T03:14:36.213Z,20.90
2018-06-01T03:17:03.677Z,21.00
2018-06-01T03:19:31.148Z,21.00
2018-06-01T03:21:58.629Z,20.90
2018-06-01T03:24:26.188Z,21.00
2018-06-01T03:26:53.645Z,21.00
2018-06-01T03:29:21.132Z,21.10
2018-06-01T03:31:48.598Z,21.00
2018-06-01T03:34:16.048Z,20.90
2018-06-01T03:36:43.599Z,20.80
2018-06-01T03:39:11.049Z,20.70
2018-06-01T03:41:39.284Z,20.50
2018-06-01T03:44:06.736Z,20.50
2018-06-01T03:46:34.200Z,20.30
2018-06-01T03:49:01.648Z,20.30
2018-06-01T03:51:29.892Z,19.90
2018-06-01T03:53:57.361Z,19.90
2018-06-01T03:56:24.841Z,19.50
2018-06-01T03:58:52.304Z,19.00
2018-06-01T04:01:19.777Z,18.50
2018-06-01T04:03:47.248Z,18.30
2018-06-01T04:06:14.715Z,18.20
2018-06-01T04:08:42.180Z,18.10
2018-06-01T04:11:09.652Z,18.00
2018-06-01T04:13:37.116Z,18.00
2018-06-01T04:16:04.589Z,18.00
2018-06-01T04:18:32.044Z,18.00
2018-06-01T04:20:59.529Z,18.00
2018-06-01T04:23:26.997Z,17.90
2018-06-01T04:25:54.533Z,18.00
2018-06-01T04:28:22.004Z,17.90
2018-06-01T04:30:49.456Z,17.90
2018-06-01T04:33:17.688Z,17.90
2018-06-01T04:35:45.141Z,17.90
2018-06-01T04:38:12.638Z,18.00
2018-06-01T04:40:40.106Z,18.00
2018-06-01T04:43:07.576Z,18.00
2018-06-01T04:45:35.051Z,18.00
2018-06-01T04:48:02.517Z,18.10
2018-06-01T04:50:30.094Z,18.10
2018-06-01T04:52:57.545Z,18.10
2018-06-01T04:55:25.041Z,18.10
2018-06-01T04:57:52.497Z,18.10
2018-06-01T05:00:19.949Z,18.10
2018-06-01T05:02:47.444Z,18.10
2018-06-01T05:05:15.012Z,18.10
2018-06-01T05:07:42.488Z,18.10
2018-06-01T05:10:09.940Z,18.20
2018-06-01T05:12:37.412Z,18.20
2018-06-01T05:15:04.864Z,18.20
2018-06-01T05:17:32.363Z,18.20
2018-06-01T05:19:59.822Z,18.30
2018-06-01T05:22:27.278Z,18.40
2018-06-01T09:11:53.347Z,20.10
2018-06-01T09:14:20.852Z,19.90
2018-06-01T09:16:48.393Z,19.90
2018-06-01T09:19:15.957Z,19.80
2018-06-01T11:17:55.528Z,20.40
2018-06-01T12:21:34.584Z,19.20
2018-06-01T15:14:11.074Z,19.00
2018-06-01T15:16:38.549Z,18.90
2018-06-01T15:19:06.384Z,18.80
2018-06-01T15:31:41.601Z,18.70
2018-06-01T15:34:09.120Z,18.70
2018-06-01T15:36:36.608Z,18.60
2018-06-01T15:39:05.127Z,18.60
2018-06-01T15:46:52.320Z,18.60
2018-06-01T15:49:19.899Z,18.50
2018-06-01T15:51:47.367Z,18.40
2018-06-01T16:05:40.521Z,18.50
2018-06-01T16:10:27.988Z,18.30
2018-06-01T16:12:55.497Z,18.40
2018-06-01T16:15:22.977Z,18.30
2018-06-01T16:17:50.441Z,18.30
2018-06-01T16:20:17.997Z,18.40
2018-06-01T16:22:45.544Z,18.40
2018-06-01T16:25:13.011Z,18.40
2018-06-01T16:27:41.216Z,18.30
2018-06-01T16:30:08.685Z,18.20
2018-06-01T16:32:36.180Z,18.20
2018-06-01T16:35:03.953Z,18.00
2018-06-01T16:37:31.401Z,18.00
2018-06-01T16:39:58.875Z,18.00
2018-06-01T16:42:26.317Z,18.00
2018-06-01T16:44:54.534Z,17.90
2018-06-01T16:47:22.000Z,17.90
2018-06-01T16:49:49.453Z,17.90
2018-06-01T16:52:16.912Z,17.80
2018-06-01T16:54:44.376Z,17.80
2018-06-01T16:57:12.723Z,17.70
2018-06-01T16:59:40.188Z,17.70
2018-06-01T17:02:07.660Z,17.60
2018-06-01T17:04:35.236Z,17.70
2018-06-01T17:07:02.689Z,17.70
2018-06-01T17:09:30.154Z,17.70
2018-06-01T17:11:57.652Z,17.70
2018-06-01T17:14:25.215Z,17.70
2018-06-01T17:16:52.684Z,17.70
2018-06-01T17:19:20.177Z,17.60
2018-06-01T17:21:47.632Z,17.60
2018-06-01T17:24:15.117Z,17.60
2018-06-01T17:26:42.624Z,17.60
2018-06-01T17:29:10.841Z,17.70
2018-06-01T17:31:38.319Z,17.60
2018-06-01T17:34:05.776Z,17.70
2018-06-01T17:36:33.250Z,17.70
2018-06-01T17:39:00.712Z,17.70
2018-06-01T17:41:28.181Z,17.70
2018-06-01T17:43:55.679Z,17.70
2018-06-01T17:46:23.200Z,17.70
2018-06-01T17:48:50.718Z,17.70
2018-06-01T17:51:18.204Z,17.70
2018-06-01T17:53:45.765Z,17.70
2018-06-01T17:56:13.339Z,17.70
2018-06-01T17:58:40.861Z,17.70
2018-06-01T18:01:08.412Z,17.60
2018-06-01T18:03:36.765Z,17.40
2018-06-01T18:06:04.295Z,17.40
2018-06-01T18:08:32.166Z,17.40
2018-06-01T18:10:59.744Z,17.30
2018-06-01T18:13:27.317Z,17.30
2018-06-01T18:15:54.830Z,17.30
2018-06-01T18:18:22.292Z,17.30
2018-06-01T18:20:49.868Z,17.30
2018-06-01T18:23:17.341Z,17.30
2018-06-01T18:25:44.816Z,17.30
2018-06-01T18:28:12.340Z,17.30
2018-06-01T18:30:39.853Z,17.40
2018-06-01T18:33:07.329Z,17.50
2018-06-01T18:35:34.900Z,17.40
2018-06-01T18:38:02.477Z,17.40
2018-06-01T18:40:30.119Z,17.50
2018-06-01T18:42:58.029Z,17.70
2018-06-01T18:45:25.590Z,17.70
2018-06-01T18:47:53.045Z,17.70
2018-06-01T18:50:20.513Z,17.70
2018-06-01T18:52:47.969Z,17.70
2018-06-01T18:55:15.440Z,17.70
2018-06-01T18:57:42.894Z,17.70
2018-06-01T19:00:10.388Z,17.70
2018-06-01T19:02:37.864Z,17.70
2018-06-01T19:05:06.121Z,17.80
2018-06-01T19:07:33.596Z,17.70
2018-06-01T19:10:01.065Z,17.80
2018-06-01T19:12:28.537Z,17.80
2018-06-01T19:14:56.052Z,17.80
2018-06-01T19:17:23.617Z,17.90
2018-06-01T19:19:51.079Z,17.90
2018-06-01T19:22:18.552Z,17.90
2018-06-01T19:24:46.240Z,17.90
2018-06-01T19:27:13.808Z,17.80
2018-06-01T19:29:41.276Z,17.90
2018-06-01T19:32:08.808Z,17.90
2018-06-01T19:34:36.335Z,18.00
2018-06-01T19:37:03.792Z,18.00
2018-06-01T19:39:31.261Z,18.00
2018-06-01T19:41:58.719Z,18.00
2018-06-01T19:44:26.302Z,18.00
2018-06-01T19:46:53.748Z,18.00
2018-06-01T19:49:21.236Z,18.00
2018-06-01T19:51:48.711Z,17.90
2018-06-01T19:54:16.168Z,17.90
2018-06-01T19:56:43.637Z,17.90
2018-06-01T19:59:11.116Z,17.90
2018-06-01T20:01:38.688Z,17.90
2018-06-01T20:04:06.148Z,17.90
2018-06-01T20:06:33.600Z,17.90
2018-06-01T20:09:01.073Z,18.00
2018-06-01T20:11:28.530Z,17.90
2018-06-01T20:13:55.996Z,17.90
2018-06-01T20:16:23.453Z,18.00
2018-06-01T20:18:51.689Z,17.90
2018-06-01T20:21:19.145Z,17.90
2018-06-01T20:23:46.641Z,17.90
2018-06-01T20:26:14.104Z,17.90
2018-06-01T20:28:41.581Z,18.00
2018-06-01T20:31:09.056Z,18.00
2018-06-01T20:33:36.508Z,18.00
2018-06-01T20:36:03.978Z,18.00
2018-06-01T20:38:31.438Z,18.10
2018-06-01T20:40:58.917Z,18.10
2018-06-01T20:43:26.376Z,18.00
2018-06-01T20:45:53.864Z,18.10
2018-06-01T20:48:21.437Z,18.10
2018-06-01T20:50:48.913Z,18.10
2018-06-01T20:53:16.387Z,18.10
2018-06-01T20:55:43.862Z,18.10
2018-06-01T20:58:11.378Z,18.10
2018-06-01T21:00:39.609Z,18.20
2018-06-01T21:03:07.065Z,18.10
2018-06-01T21:05:34.778Z,18.10
2018-06-01T21:08:02.520Z,18.10
2018-06-01T21:10:30.914Z,18.10
2018-06-01T21:12:58.369Z,18.10
2018-06-01T21:15:25.919Z,18.00
2018-06-01T21:17:54.132Z,18.00
2018-06-01T21:20:21.680Z,18.00
2018-06-01T21:22:49.913Z,18.00
2018-06-01T21:25:17.384Z,18.00
2018-06-01T21:27:44.949Z,18.00
2018-06-01T21:30:12.406Z,18.00
2018-06-01T21:32:39.881Z,17.80
2018-06-01T21:35:07.345Z,17.80
2018-06-01T21:37:34.802Z,17.90
2018-06-01T21:40:02.316Z,17.90
2018-06-01T21:42:29.776Z,17.90
2018-06-01T21:44:57.344Z,17.90
2018-06-01T21:47:24.801Z,17.80
2018-06-01T21:49:52.384Z,17.90
2018-06-01T21:52:19.856Z,17.90
2018-06-01T21:54:47.346Z,17.90
2018-06-01T21:57:14.800Z,17.90
2018-06-01T21:59:42.364Z,17.90
2018-06-01T22:02:09.840Z,17.90
2018-06-01T22:04:37.305Z,17.90
2018-06-01T22:07:04.877Z,17.90
2018-06-01T22:09:32.353Z,17.90
2018-06-01T22:11:59.921Z,18.00
2018-06-01T22:14:27.496Z,18.00
2018-06-01T22:16:54.952Z,18.00
2018-06-01T22:19:22.424Z,17.90
2018-06-01T22:21:49.880Z,17.90
2018-06-01T22:24:17.360Z,17.90
2018-06-01T22:26:44.825Z,17.90
2018-06-01T22:29:12.281Z,17.90
2018-06-01T22:31:39.784Z,17.90
2018-06-01T22:34:07.252Z,17.90
2018-06-01T22:36:34.829Z,17.80
2018-06-01T22:39:02.290Z,17.80
2018-06-01T22:41:29.764Z,17.80
2018-06-01T22:43:57.236Z,17.80
2018-06-01T22:46:24.699Z,17.70
2018-06-01T22:48:52.278Z,17.70
2018-06-01T22:51:19.742Z,17.70
2018-06-01T22:53:47.317Z,17.70
2018-06-01T22:56:14.788Z,17.70
2018-06-01T22:58:42.263Z,17.70
2018-06-01T23:01:09.833Z,17.70
2018-06-01T23:03:37.288Z,17.80
2018-06-01T23:06:04.768Z,17.80
2018-06-01T23:08:32.248Z,17.80
2018-06-01T23:10:59.826Z,17.80
2018-06-01T23:13:28.184Z,17.70
2018-06-01T23:15:55.668Z,17.70
2018-06-01T23:18:23.129Z,17.80
2018-06-01T23:20:50.616Z,17.70
2018-06-01T23:23:18.092Z,17.80
2018-06-01T23:25:45.560Z,17.80
2018-06-01T23:28:13.024Z,17.70
2018-06-01T23:30:42.434Z,17.70
2018-06-01T23:33:10.013Z,17.60
2018-06-01T23:35:37.485Z,17.60
2018-06-01T23:38:05.061Z,17.60
2018-06-01T23:40:32.687Z,17.60
2018-06-01T23:43:00.150Z,17.60
2018-06-01T23:45:27.677Z,17.60
2018-06-01T23:47:55.141Z,17.60
2018-06-01T23:50:22.768Z,17.60
2018-06-01T23:52:50.984Z,17.60
2018-06-01T23:55:18.452Z,17.60
2018-06-01T23:57:45.932Z,17.60
